createdAt,value
2018-07-02T00:00:02.863Z,51
2018-07-02T00:01:03.573Z,50
2018-07-02T00:02:04.287Z,50
2018-07-02T00:03:04.998Z,51
2018-07-02T00:04:05.724Z,51
2018-07-02T00:05:06.436Z,51
2018-07-02T00:06:07.149Z,51
2018-07-02T00:07:07.860Z,51
2018-07-02T00:08:08.572Z,51
2018-07-02T00:09:09.282Z,51
2018-07-02T00:10:09.993Z,50
2018-07-02T00:11:10.706Z,50
2018-07-02T00:12:11.418Z,51
2018-07-02T00:13:12.143Z,51
2018-07-02T00:14:12.855Z,51
2018-07-02T00:15:13.566Z,51
2018-07-02T00:16:14.277Z,51
2018-07-02T00:17:14.990Z,51
2018-07-02T00:18:15.702Z,51
2018-07-02T00:19:16.414Z,51
2018-07-02T00:20:17.126Z,51
2018-07-02T00:21:17.838Z,51
2018-07-02T00:22:18.562Z,51
2018-07-02T00:23:19.277Z,51
2018-07-02T00:24:19.986Z,51
2018-07-02T00:25:20.711Z,51
2018-07-02T00:26:21.422Z,51
2018-07-02T00:27:22.134Z,52
2018-07-02T00:29:23.475Z,51
2018-07-02T00:30:24.184Z,52
2018-07-02T00:31:24.895Z,52
2018-07-02T00:32:25.607Z,51
2018-07-02T00:33:26.319Z,52
2018-07-02T00:34:27.031Z,52
2018-07-02T00:35:27.753Z,52
2018-07-02T00:36:28.465Z,52
2018-07-02T00:37:29.177Z,52
2018-07-02T00:38:29.888Z,52
2018-07-02T00:39:30.613Z,52
2018-07-02T00:40:31.325Z,52
2018-07-02T00:41:32.038Z,52
2018-07-02T00:42:32.796Z,52
2018-07-02T00:43:33.469Z,53
2018-07-02T00:44:34.181Z,53
2018-07-02T00:45:34.908Z,52
2018-07-02T00:46:35.616Z,53
2018-07-02T00:47:36.329Z,53
2018-07-02T00:48:37.041Z,53
2018-07-02T00:49:37.766Z,53
2018-07-02T00:50:38.479Z,53
2018-07-02T00:51:39.193Z,53
2018-07-02T00:52:39.907Z,53
2018-07-02T00:53:40.619Z,53
2018-07-02T00:54:41.333Z,53
2018-07-02T00:55:42.052Z,53
2018-07-02T00:56:42.777Z,53
2018-07-02T00:57:43.489Z,54
2018-07-02T00:58:44.201Z,53
2018-07-02T00:59:44.925Z,53
2018-07-02T01:00:45.636Z,54
2018-07-02T01:01:46.348Z,54
2018-07-02T01:02:47.066Z,54
2018-07-02T01:03:47.780Z,53
2018-07-02T01:04:48.493Z,54
2018-07-02T01:05:49.204Z,53
2018-07-02T01:06:49.915Z,53
2018-07-02T01:07:50.628Z,54
2018-07-02T01:08:51.345Z,53
2018-07-02T01:09:52.052Z,53
2018-07-02T01:10:52.764Z,54
2018-07-02T01:11:53.476Z,54
2018-07-02T01:12:54.189Z,53
2018-07-02T01:13:54.900Z,53
2018-07-02T01:14:55.614Z,53
2018-07-02T01:15:56.327Z,54
2018-07-02T01:16:57.033Z,54
2018-07-02T01:17:57.757Z,53
2018-07-02T01:18:58.482Z,54
2018-07-02T01:19:59.192Z,54
2018-07-02T01:20:59.905Z,53
2018-07-02T01:22:00.617Z,53
2018-07-02T01:23:01.331Z,54
2018-07-02T01:24:02.042Z,53
2018-07-02T01:25:02.756Z,54
2018-07-02T01:26:03.468Z,53
2018-07-02T01:27:04.193Z,53
2018-07-02T01:28:04.903Z,54
2018-07-02T01:29:05.616Z,54
2018-07-02T01:30:06.328Z,53
2018-07-02T01:31:07.039Z,53
2018-07-02T01:32:07.755Z,54
2018-07-02T01:33:08.468Z,53
2018-07-02T01:34:09.193Z,53
2018-07-02T01:35:09.910Z,53
2018-07-02T01:36:10.620Z,54
2018-07-02T01:37:11.332Z,54
2018-07-02T01:38:12.046Z,54
2018-07-02T01:39:12.758Z,54
2018-07-02T01:40:13.477Z,54
2018-07-02T01:41:14.191Z,55
2018-07-02T01:42:14.910Z,54
2018-07-02T01:43:15.621Z,55
2018-07-02T01:44:16.333Z,55
2018-07-02T01:45:17.056Z,55
2018-07-02T01:46:17.780Z,55
2018-07-02T01:47:18.506Z,55
2018-07-02T01:48:19.218Z,55
2018-07-02T01:49:19.932Z,55
2018-07-02T01:50:20.655Z,55
2018-07-02T01:51:21.366Z,55
2018-07-02T01:52:22.079Z,55
2018-07-02T01:53:22.790Z,55
2018-07-02T01:54:23.516Z,55
2018-07-02T01:55:24.228Z,55
2018-07-02T01:56:24.942Z,56
2018-07-02T01:57:25.663Z,56
2018-07-02T01:58:26.376Z,56
2018-07-02T01:59:27.088Z,56
2018-07-02T02:00:27.800Z,56
2018-07-02T02:01:28.523Z,56
2018-07-02T02:02:29.235Z,56
2018-07-02T02:03:29.948Z,56
2018-07-02T02:04:30.659Z,57
2018-07-02T02:05:31.371Z,57
2018-07-02T02:06:32.081Z,57
2018-07-02T02:07:32.792Z,57
2018-07-02T02:08:33.503Z,56
2018-07-02T02:09:34.231Z,57
2018-07-02T02:10:34.939Z,57
2018-07-02T02:11:35.651Z,57
2018-07-02T02:12:36.364Z,57
2018-07-02T02:13:37.075Z,57
2018-07-02T02:14:37.783Z,58
2018-07-02T02:15:38.496Z,57
2018-07-02T02:16:39.206Z,58
2018-07-02T02:17:39.931Z,58
2018-07-02T02:18:40.658Z,58
2018-07-02T02:19:41.370Z,58
2018-07-02T02:20:42.094Z,58
2018-07-02T02:21:42.806Z,58
2018-07-02T02:22:43.520Z,58
2018-07-02T02:23:44.230Z,58
2018-07-02T02:24:44.941Z,59
2018-07-02T02:25:45.652Z,58
2018-07-02T02:26:46.365Z,59
2018-07-02T02:27:47.087Z,59
2018-07-02T02:28:47.801Z,58
2018-07-02T02:29:48.511Z,58
2018-07-02T02:30:49.234Z,58
2018-07-02T02:31:49.947Z,58
2018-07-02T02:32:50.660Z,58
2018-07-02T02:33:51.372Z,58
2018-07-02T02:34:52.083Z,59
2018-07-02T02:35:52.795Z,59
2018-07-02T02:36:53.507Z,59
2018-07-02T02:37:54.218Z,59
2018-07-02T02:38:54.930Z,59
2018-07-02T02:39:55.642Z,59
2018-07-02T02:40:56.365Z,59
2018-07-02T02:41:57.078Z,59
2018-07-02T02:42:57.790Z,59
2018-07-02T02:43:58.502Z,59
2018-07-02T02:44:59.214Z,60
2018-07-02T02:45:59.924Z,60
2018-07-02T02:47:00.644Z,60
2018-07-02T02:48:01.356Z,60
2018-07-02T02:49:02.070Z,60
2018-07-02T02:50:02.786Z,60
2018-07-02T02:51:03.493Z,60
2018-07-02T02:52:04.208Z,61
2018-07-02T02:53:04.918Z,61
2018-07-02T02:54:05.632Z,61
2018-07-02T02:55:06.359Z,61
2018-07-02T02:56:07.083Z,61
2018-07-02T02:57:07.793Z,61
2018-07-02T02:58:08.518Z,62
2018-07-02T02:59:09.231Z,61
2018-07-02T03:00:09.948Z,61
2018-07-02T03:01:10.662Z,61
2018-07-02T03:02:11.376Z,62
2018-07-02T03:03:12.088Z,61
2018-07-02T03:04:12.799Z,62
2018-07-02T03:05:13.517Z,62
2018-07-02T03:06:14.235Z,62
2018-07-02T03:07:14.962Z,62
2018-07-02T03:08:15.676Z,62
2018-07-02T03:09:16.389Z,62
2018-07-02T03:10:17.103Z,62
2018-07-02T03:11:17.815Z,62
2018-07-02T03:12:18.527Z,62
2018-07-02T03:13:19.239Z,63
2018-07-02T03:14:19.953Z,62
2018-07-02T03:15:20.679Z,63
2018-07-02T03:16:21.408Z,63
2018-07-02T03:17:22.116Z,63
2018-07-02T03:18:22.839Z,63
2018-07-02T03:19:23.554Z,63
2018-07-02T03:20:24.319Z,63
2018-07-02T03:21:24.987Z,63
2018-07-02T03:22:25.710Z,63
2018-07-02T03:23:26.425Z,63
2018-07-02T03:24:27.139Z,63
2018-07-02T03:25:27.857Z,64
2018-07-02T03:26:28.569Z,63
2018-07-02T03:27:29.282Z,64
2018-07-02T03:28:30.001Z,64
2018-07-02T03:29:30.713Z,64
2018-07-02T03:30:31.451Z,64
2018-07-02T03:31:32.160Z,64
2018-07-02T03:32:32.888Z,64
2018-07-02T03:33:33.602Z,64
2018-07-02T03:34:34.327Z,65
2018-07-02T03:35:35.073Z,65
2018-07-02T03:36:35.788Z,65
2018-07-02T03:37:36.503Z,65
2018-07-02T03:38:37.217Z,65
2018-07-02T03:39:37.942Z,65
2018-07-02T03:40:38.667Z,65
2018-07-02T03:41:39.407Z,66
2018-07-02T03:42:40.122Z,65
2018-07-02T03:43:40.835Z,65
2018-07-02T03:44:41.549Z,66
2018-07-02T03:45:42.264Z,66
2018-07-02T03:46:42.991Z,65
2018-07-02T03:47:43.705Z,65
2018-07-02T03:48:44.421Z,65
2018-07-02T03:49:45.136Z,65
2018-07-02T03:50:45.851Z,65
2018-07-02T03:51:46.575Z,65
2018-07-02T03:52:47.290Z,65
2018-07-02T03:53:48.020Z,65
2018-07-02T03:54:48.744Z,65
2018-07-02T03:55:49.460Z,64
2018-07-02T03:56:50.175Z,65
2018-07-02T03:57:50.891Z,65
2018-07-02T03:58:51.607Z,65
2018-07-02T03:59:52.321Z,65
2018-07-02T04:00:53.038Z,65
2018-07-02T04:01:53.757Z,64
2018-07-02T04:02:54.480Z,64
2018-07-02T04:03:55.198Z,65
2018-07-02T04:04:55.926Z,65
2018-07-02T04:05:56.641Z,64
2018-07-02T04:06:57.356Z,65
2018-07-02T04:07:58.073Z,64
2018-07-02T04:08:58.800Z,65
2018-07-02T04:09:59.517Z,65
2018-07-02T04:11:00.232Z,65
2018-07-02T04:12:00.967Z,65
2018-07-02T04:13:01.710Z,65
2018-07-02T04:14:02.387Z,65
2018-07-02T04:15:03.101Z,65
2018-07-02T04:16:03.823Z,65
2018-07-02T04:17:04.540Z,65
2018-07-02T04:18:05.256Z,65
2018-07-02T04:19:05.971Z,65
2018-07-02T04:20:06.688Z,65
2018-07-02T04:21:07.405Z,64
2018-07-02T04:22:08.120Z,65
2018-07-02T04:23:08.837Z,65
2018-07-02T04:24:09.554Z,65
2018-07-02T04:25:10.271Z,65
2018-07-02T04:26:10.988Z,65
2018-07-02T04:27:11.704Z,65
2018-07-02T04:28:12.434Z,65
2018-07-02T04:29:13.147Z,65
2018-07-02T04:30:13.862Z,65
2018-07-02T04:31:14.582Z,65
2018-07-02T04:32:15.297Z,65
2018-07-02T04:33:16.015Z,65
2018-07-02T04:34:16.772Z,64
2018-07-02T04:35:17.458Z,64
2018-07-02T04:36:18.174Z,64
2018-07-02T04:37:18.889Z,64
2018-07-02T04:38:19.619Z,64
2018-07-02T04:39:20.335Z,64
2018-07-02T04:40:21.051Z,63
2018-07-02T04:41:21.774Z,63
2018-07-02T04:42:22.492Z,63
2018-07-02T04:43:23.208Z,63
2018-07-02T04:44:23.935Z,63
2018-07-02T04:45:24.651Z,63
2018-07-02T04:46:25.370Z,63
2018-07-02T04:47:26.086Z,63
2018-07-02T04:48:26.803Z,63
2018-07-02T04:49:27.515Z,63
2018-07-02T04:50:28.231Z,63
2018-07-02T04:51:28.948Z,63
2018-07-02T04:52:29.666Z,63
2018-07-02T04:53:30.380Z,62
2018-07-02T04:54:31.100Z,63
2018-07-02T04:55:31.826Z,62
2018-07-02T04:56:32.543Z,62
2018-07-02T04:57:33.258Z,62
2018-07-02T04:58:33.986Z,62
2018-07-02T04:59:34.750Z,62
2018-07-02T05:00:35.428Z,62
2018-07-02T05:01:36.145Z,62
2018-07-02T05:02:36.873Z,62
2018-07-02T05:03:37.589Z,61
2018-07-02T05:04:38.305Z,61
2018-07-02T05:05:39.025Z,62
2018-07-02T05:06:39.738Z,62
2018-07-02T05:07:40.500Z,61
2018-07-02T05:08:41.171Z,61
2018-07-02T05:09:41.890Z,61
2018-07-02T05:10:42.606Z,61
2018-07-02T05:11:43.324Z,61
2018-07-02T05:12:44.040Z,61
2018-07-02T05:13:44.772Z,60
2018-07-02T05:14:45.488Z,60
2018-07-02T05:15:46.200Z,61
2018-07-02T05:16:46.931Z,60
2018-07-02T05:17:47.811Z,60
2018-07-02T05:18:48.361Z,60
2018-07-02T05:19:49.089Z,60
2018-07-02T05:20:49.806Z,59
2018-07-02T05:21:50.522Z,59
2018-07-02T05:22:51.240Z,60
2018-07-02T05:23:51.956Z,59
2018-07-02T05:24:52.673Z,59
2018-07-02T05:25:53.403Z,59
2018-07-02T05:26:54.249Z,58
2018-07-02T05:27:54.838Z,58
2018-07-02T05:28:55.555Z,58
2018-07-02T05:29:56.285Z,58
2018-07-02T05:30:57.052Z,58
2018-07-02T05:31:57.742Z,58
2018-07-02T05:32:58.462Z,58
2018-07-02T05:33:59.179Z,57
2018-07-02T05:34:59.896Z,57
2018-07-02T05:36:00.613Z,57
2018-07-02T05:37:01.331Z,56
2018-07-02T05:38:02.045Z,56
2018-07-02T05:39:02.773Z,56
2018-07-02T05:40:03.490Z,56
2018-07-02T05:41:04.207Z,56
2018-07-02T05:42:04.923Z,55
2018-07-02T05:43:05.654Z,56
2018-07-02T05:44:06.371Z,55
2018-07-02T05:45:07.090Z,54
2018-07-02T05:46:07.807Z,54
2018-07-02T05:47:08.532Z,55
2018-07-02T05:48:09.250Z,55
2018-07-02T05:49:09.967Z,55
2018-07-02T05:50:10.684Z,54
2018-07-02T05:51:11.404Z,54
2018-07-02T05:52:12.121Z,54
2018-07-02T05:53:12.835Z,54
2018-07-02T05:54:13.551Z,54
2018-07-02T05:55:14.270Z,53
2018-07-02T05:56:14.988Z,54
2018-07-02T05:57:15.872Z,54
2018-07-02T05:58:16.433Z,54
2018-07-02T05:59:17.153Z,53
2018-07-02T06:00:17.923Z,53
2018-07-02T06:01:18.600Z,53
2018-07-02T06:02:19.318Z,53
2018-07-02T06:03:20.035Z,53
2018-07-02T06:04:20.751Z,53
2018-07-02T06:05:21.470Z,53
2018-07-02T06:06:22.189Z,52
2018-07-02T06:07:22.920Z,52
2018-07-02T06:08:23.643Z,53
2018-07-02T06:09:24.358Z,53
2018-07-02T06:10:25.076Z,52
2018-07-02T06:11:25.795Z,53
2018-07-02T06:12:26.516Z,52
2018-07-02T06:13:27.245Z,53
2018-07-02T06:14:27.974Z,53
2018-07-02T06:15:28.693Z,53
2018-07-02T06:16:29.488Z,52
2018-07-02T06:17:30.128Z,52
2018-07-02T06:18:30.849Z,53
2018-07-02T06:19:31.568Z,52
2018-07-02T06:20:32.290Z,52
2018-07-02T06:21:33.021Z,52
2018-07-02T06:22:33.740Z,51
2018-07-02T06:23:34.460Z,51
2018-07-02T06:24:35.178Z,51
2018-07-02T06:25:35.897Z,51
2018-07-02T06:26:36.615Z,51
2018-07-02T06:27:37.334Z,51
2018-07-02T06:28:38.052Z,51
2018-07-02T06:29:38.774Z,51
2018-07-02T06:30:39.492Z,52
2018-07-02T06:31:40.210Z,52
2018-07-02T06:32:40.929Z,50
2018-07-02T06:33:41.649Z,50
2018-07-02T06:34:42.367Z,50
2018-07-02T06:35:43.086Z,50
2018-07-02T06:36:43.816Z,50
2018-07-02T06:37:44.548Z,50
2018-07-02T06:38:45.268Z,49
2018-07-02T06:39:45.998Z,49
2018-07-02T06:40:46.715Z,49
2018-07-02T06:41:47.433Z,49
2018-07-02T06:42:48.152Z,50
2018-07-02T06:43:48.872Z,50
2018-07-02T06:44:49.592Z,50
2018-07-02T06:45:50.310Z,50
2018-07-02T06:46:51.039Z,49
2018-07-02T06:47:51.773Z,49
2018-07-02T06:48:52.489Z,49
2018-07-02T06:49:53.210Z,50
2018-07-02T06:50:53.929Z,49
2018-07-02T06:51:54.644Z,48
2018-07-02T06:52:55.364Z,48
2018-07-02T06:53:56.092Z,48
2018-07-02T06:54:56.824Z,48
2018-07-02T06:55:57.544Z,47
2018-07-02T06:56:58.262Z,46
2018-07-02T06:57:58.980Z,46
2018-07-02T06:58:59.700Z,45
2018-07-02T07:00:00.419Z,45
2018-07-02T07:01:01.147Z,46
2018-07-02T07:02:01.876Z,46
2018-07-02T07:03:02.603Z,46
2018-07-02T07:04:03.323Z,45
2018-07-02T07:05:04.059Z,46
2018-07-02T07:06:04.774Z,45
2018-07-02T07:07:05.492Z,46
2018-07-02T07:08:06.210Z,46
2018-07-02T07:09:06.940Z,46
2018-07-02T07:10:07.659Z,46
2018-07-02T07:11:08.382Z,45
2018-07-02T07:12:09.102Z,45
2018-07-02T07:13:09.822Z,45
2018-07-02T07:14:10.542Z,45
2018-07-02T07:15:11.259Z,45
2018-07-02T07:16:11.979Z,45
2018-07-02T07:17:12.709Z,44
2018-07-02T07:18:13.444Z,45
2018-07-02T07:19:14.162Z,44
2018-07-02T07:20:14.895Z,43
2018-07-02T07:21:15.615Z,43
2018-07-02T07:22:16.337Z,43
2018-07-02T07:23:17.057Z,43
2018-07-02T07:24:17.781Z,43
2018-07-02T07:25:18.499Z,43
2018-07-02T07:26:19.219Z,43
2018-07-02T07:27:19.941Z,43
2018-07-02T07:28:20.660Z,43
2018-07-02T07:29:21.384Z,44
2018-07-02T07:30:22.106Z,43
2018-07-02T07:31:22.825Z,42
2018-07-02T07:32:23.542Z,42
2018-07-02T07:33:24.265Z,42
2018-07-02T07:34:24.986Z,42
2018-07-02T07:35:25.720Z,42
2018-07-02T07:36:26.459Z,42
2018-07-02T07:37:27.221Z,42
2018-07-02T07:38:27.913Z,42
2018-07-02T07:39:28.632Z,41
2018-07-02T07:40:29.355Z,41
2018-07-02T07:41:30.074Z,41
2018-07-02T07:42:30.795Z,40
2018-07-02T07:43:31.517Z,40
2018-07-02T07:44:32.240Z,40
2018-07-02T07:45:32.976Z,39
2018-07-02T07:46:33.699Z,39
2018-07-02T07:47:34.425Z,39
2018-07-02T07:48:35.147Z,39
2018-07-02T07:49:35.873Z,39
2018-07-02T07:50:36.597Z,39
2018-07-02T07:51:37.323Z,39
2018-07-02T07:52:38.049Z,39
2018-07-02T07:53:38.776Z,39
2018-07-02T07:54:39.511Z,40
2018-07-02T07:55:40.237Z,39
2018-07-02T07:56:40.960Z,38
2018-07-02T07:57:41.684Z,38
2018-07-02T07:58:42.406Z,38
2018-07-02T07:59:43.132Z,39
2018-07-02T08:00:43.859Z,36
2018-07-02T08:01:44.586Z,36
2018-07-02T08:02:45.323Z,36
2018-07-02T08:03:46.094Z,36
2018-07-02T08:04:46.776Z,36
2018-07-02T08:05:47.502Z,36
2018-07-02T08:06:48.244Z,36
2018-07-02T08:07:48.972Z,35
2018-07-02T08:08:49.703Z,35
2018-07-02T08:09:50.430Z,35
2018-07-02T08:10:51.173Z,35
2018-07-02T08:11:51.903Z,35
2018-07-02T08:12:52.631Z,35
2018-07-02T08:13:53.363Z,35
2018-07-02T08:14:54.094Z,35
2018-07-02T08:15:54.825Z,34
2018-07-02T08:16:55.558Z,34
2018-07-02T08:17:56.291Z,33
2018-07-02T08:18:57.034Z,33
2018-07-02T08:19:57.756Z,33
2018-07-02T08:20:58.487Z,32
2018-07-02T08:21:59.234Z,32
2018-07-02T08:22:59.964Z,31
2018-07-02T08:24:00.697Z,32
2018-07-02T08:25:01.426Z,31
2018-07-02T08:26:02.157Z,31
2018-07-02T08:27:02.891Z,31
2018-07-02T08:28:03.634Z,31
2018-07-02T08:29:04.378Z,31
2018-07-02T08:30:05.111Z,31
2018-07-02T08:31:05.843Z,32
2018-07-02T08:32:06.574Z,32
2018-07-02T08:33:07.335Z,32
2018-07-02T08:34:08.052Z,32
2018-07-02T08:35:08.790Z,32
2018-07-02T08:36:09.520Z,32
2018-07-02T08:37:10.253Z,31
2018-07-02T08:38:10.986Z,31
2018-07-02T08:39:11.719Z,31
2018-07-02T08:40:12.453Z,31
2018-07-02T08:41:13.193Z,30
2018-07-02T08:42:13.923Z,30
2018-07-02T08:43:14.655Z,30
2018-07-02T08:44:15.401Z,30
2018-07-02T08:45:16.134Z,29
2018-07-02T08:46:16.883Z,29
2018-07-02T08:47:17.618Z,29
2018-07-02T08:48:18.351Z,29
2018-07-02T08:49:19.089Z,29
2018-07-02T08:50:19.836Z,29
2018-07-02T08:51:20.585Z,29
2018-07-02T08:52:21.322Z,29
2018-07-02T08:53:22.059Z,29
2018-07-02T08:54:22.799Z,29
2018-07-02T08:55:23.541Z,30
2018-07-02T08:56:24.278Z,30
2018-07-02T08:57:25.020Z,30
2018-07-02T08:58:25.767Z,29
2018-07-02T08:59:26.500Z,29
2018-07-02T09:00:27.253Z,29
2018-07-02T09:01:27.998Z,29
2018-07-02T09:02:28.740Z,30
2018-07-02T09:03:29.496Z,30
2018-07-02T09:04:30.239Z,29
2018-07-02T09:05:30.979Z,29
2018-07-02T09:06:31.724Z,29
2018-07-02T09:07:32.466Z,29
2018-07-02T09:08:33.220Z,29
2018-07-02T09:09:33.973Z,29
2018-07-02T09:10:34.709Z,28
2018-07-02T09:11:35.456Z,28
2018-07-02T09:12:36.197Z,27
2018-07-02T09:13:36.937Z,28
2018-07-02T09:14:37.712Z,28
2018-07-02T09:15:38.417Z,28
2018-07-02T09:16:39.158Z,28
2018-07-02T09:17:39.926Z,28
2018-07-02T09:18:40.644Z,27
2018-07-02T09:19:41.382Z,27
2018-07-02T09:20:42.168Z,26
2018-07-02T09:21:42.873Z,27
2018-07-02T09:22:43.615Z,27
2018-07-02T09:23:44.380Z,26
2018-07-02T09:24:45.103Z,26
2018-07-02T09:25:45.838Z,26
2018-07-02T09:26:46.579Z,26
2018-07-02T09:27:47.322Z,26
2018-07-02T09:28:48.064Z,25
2018-07-02T09:29:48.987Z,26
2018-07-02T09:30:49.547Z,25
2018-07-02T09:31:50.301Z,25
2018-07-02T09:32:51.043Z,25
2018-07-02T09:33:51.785Z,25
2018-07-02T09:34:52.528Z,26
2018-07-02T09:35:53.268Z,26
2018-07-02T09:36:54.023Z,26
2018-07-02T09:37:54.766Z,26
2018-07-02T09:38:55.506Z,25
2018-07-02T09:39:56.249Z,25
2018-07-02T09:40:56.991Z,25
2018-07-02T09:41:57.730Z,25
2018-07-02T09:42:58.486Z,24
2018-07-02T09:43:59.235Z,24
2018-07-02T09:44:59.973Z,25
2018-07-02T09:46:00.714Z,26
2018-07-02T09:47:01.465Z,26
2018-07-02T09:48:02.206Z,26
2018-07-02T09:49:02.946Z,26
2018-07-02T09:50:03.684Z,26
2018-07-02T09:51:04.422Z,26
2018-07-02T09:52:05.164Z,26
2018-07-02T09:53:06.128Z,26
2018-07-02T09:54:06.641Z,25
2018-07-02T09:55:07.381Z,26
2018-07-02T09:56:08.138Z,26
2018-07-02T09:57:08.870Z,25
2018-07-02T09:58:09.621Z,25
2018-07-02T09:59:10.360Z,25
2018-07-02T10:00:11.098Z,23
2018-07-02T10:01:11.838Z,24
2018-07-02T10:02:12.577Z,23
2018-07-02T10:03:13.319Z,22
2018-07-02T10:04:14.072Z,22
2018-07-02T10:05:14.813Z,21
2018-07-02T10:06:15.612Z,21
2018-07-02T10:07:16.299Z,21
2018-07-02T10:08:17.040Z,21
2018-07-02T10:09:17.794Z,21
2018-07-02T10:10:18.530Z,20
2018-07-02T10:11:19.267Z,20
2018-07-02T10:12:20.019Z,20
2018-07-02T10:13:20.769Z,20
2018-07-02T10:14:21.508Z,21
2018-07-02T10:15:22.259Z,21
2018-07-02T10:16:22.998Z,21
2018-07-02T10:17:23.736Z,20
2018-07-02T10:18:24.474Z,20
2018-07-02T10:19:25.211Z,20
2018-07-02T10:20:25.988Z,20
2018-07-02T10:21:26.711Z,21
2018-07-02T10:22:27.453Z,21
2018-07-02T10:23:28.230Z,21
2018-07-02T10:25:37.933Z,20
2018-07-02T10:26:38.670Z,21
2018-07-02T10:27:39.423Z,21
2018-07-02T10:28:40.160Z,22
2018-07-02T10:29:40.898Z,23
2018-07-02T10:30:41.677Z,23
2018-07-02T10:31:42.392Z,23
2018-07-02T10:32:43.138Z,22
2018-07-02T10:33:43.887Z,22
2018-07-02T10:34:44.672Z,22
2018-07-02T10:35:45.376Z,21
2018-07-02T10:36:46.129Z,21
2018-07-02T10:37:46.866Z,21
2018-07-02T10:38:47.605Z,21
2018-07-02T10:39:48.345Z,21
2018-07-02T10:40:49.096Z,20
2018-07-02T10:41:49.835Z,20
2018-07-02T10:42:50.577Z,19
2018-07-02T10:43:51.313Z,21
2018-07-02T10:44:52.055Z,21
2018-07-02T10:46:54.521Z,22
2018-07-02T10:48:47.926Z,22
2018-07-02T10:49:48.676Z,23
2018-07-02T10:50:49.425Z,23
2018-07-02T10:51:50.176Z,23
2018-07-02T10:52:50.918Z,24
2018-07-02T10:53:51.649Z,23
2018-07-02T10:54:52.402Z,22
2018-07-02T10:55:53.138Z,22
2018-07-02T10:56:53.878Z,22
2018-07-02T10:57:54.627Z,22
2018-07-02T10:58:55.365Z,21
2018-07-02T10:59:56.103Z,21
2018-07-02T11:00:56.842Z,21
2018-07-02T11:01:57.580Z,21
2018-07-02T11:02:58.317Z,21
2018-07-02T11:03:59.054Z,21
2018-07-02T11:04:59.803Z,21
2018-07-02T11:06:00.544Z,21
2018-07-02T11:07:01.283Z,21
2018-07-02T11:08:02.021Z,21
2018-07-02T11:09:02.758Z,21
2018-07-02T11:10:03.496Z,20
2018-07-02T11:11:04.281Z,20
2018-07-02T11:12:04.978Z,20
2018-07-02T11:13:05.715Z,20
2018-07-02T11:14:06.455Z,21
2018-07-02T11:15:07.192Z,21
2018-07-02T11:16:07.931Z,21
2018-07-02T11:17:08.699Z,21
2018-07-02T11:18:09.414Z,21
2018-07-02T11:19:10.164Z,21
2018-07-02T11:20:10.903Z,21
2018-07-02T11:21:11.641Z,22
2018-07-02T11:22:12.382Z,22
2018-07-02T11:23:13.138Z,22
2018-07-02T11:24:13.873Z,23
2018-07-02T11:25:14.610Z,22
2018-07-02T11:26:15.351Z,22
2018-07-02T11:27:16.090Z,22
2018-07-02T11:28:16.829Z,21
2018-07-02T11:29:17.567Z,21
2018-07-02T11:30:18.307Z,22
2018-07-02T11:31:19.047Z,22
2018-07-02T11:32:19.786Z,22
2018-07-02T11:33:20.525Z,22
2018-07-02T11:34:21.266Z,22
2018-07-02T11:35:22.004Z,22
2018-07-02T11:36:22.747Z,23
2018-07-02T11:37:23.516Z,22
2018-07-02T11:38:24.219Z,22
2018-07-02T11:39:24.954Z,22
2018-07-02T11:40:25.702Z,22
2018-07-02T11:41:26.442Z,22
2018-07-02T11:42:27.182Z,21
2018-07-02T11:43:27.919Z,20
2018-07-02T11:44:28.656Z,20
2018-07-02T11:45:29.395Z,20
2018-07-02T11:46:30.134Z,20
2018-07-02T11:47:30.872Z,20
2018-07-02T11:48:31.613Z,20
2018-07-02T11:49:32.352Z,19
2018-07-02T11:50:33.103Z,19
2018-07-02T11:51:33.852Z,18
2018-07-02T11:52:34.597Z,18
2018-07-02T11:53:35.348Z,18
2018-07-02T11:54:36.088Z,19
2018-07-02T11:55:36.841Z,19
2018-07-02T11:56:37.582Z,19
2018-07-02T11:57:38.319Z,18
2018-07-02T11:58:39.098Z,18
2018-07-02T11:59:39.838Z,18
2018-07-02T12:00:40.591Z,18
2018-07-02T12:01:41.327Z,18
2018-07-02T12:02:42.066Z,17
2018-07-02T12:03:42.817Z,17
2018-07-02T12:04:43.555Z,17
2018-07-02T12:05:44.324Z,17
2018-07-02T12:06:45.042Z,18
2018-07-02T12:07:45.781Z,18
2018-07-02T12:08:46.520Z,18
2018-07-02T12:09:47.272Z,18
2018-07-02T12:10:48.011Z,18
2018-07-02T12:11:48.749Z,17
2018-07-02T12:12:49.503Z,17
2018-07-02T12:13:50.258Z,17
2018-07-02T12:14:50.999Z,17
2018-07-02T12:15:51.740Z,17
2018-07-02T12:16:52.489Z,17
2018-07-02T12:17:53.229Z,16
2018-07-02T12:18:53.970Z,17
2018-07-02T12:19:54.709Z,17
2018-07-02T12:20:55.460Z,17
2018-07-02T12:21:56.213Z,17
2018-07-02T12:22:56.959Z,16
2018-07-02T12:23:57.688Z,17
2018-07-02T12:24:58.430Z,17
2018-07-02T12:25:59.168Z,16
2018-07-02T12:26:59.908Z,15
2018-07-02T12:28:00.650Z,15
2018-07-02T12:29:01.390Z,15
2018-07-02T12:30:02.130Z,15
2018-07-02T12:31:02.868Z,15
2018-07-02T12:32:03.614Z,16
2018-07-02T12:33:04.345Z,17
2018-07-02T12:34:05.086Z,17
2018-07-02T12:35:05.824Z,17
2018-07-02T12:36:06.563Z,17
2018-07-02T12:37:07.314Z,17
2018-07-02T12:38:08.052Z,17
2018-07-02T12:39:08.796Z,17
2018-07-02T12:40:09.532Z,17
2018-07-02T12:41:10.280Z,18
2018-07-02T12:42:11.012Z,17
2018-07-02T12:43:11.750Z,17
2018-07-02T12:44:12.491Z,17
2018-07-02T12:45:13.229Z,17
2018-07-02T12:46:13.969Z,16
2018-07-02T12:47:14.708Z,16
2018-07-02T12:48:15.458Z,17
2018-07-02T12:49:16.215Z,17
2018-07-02T12:50:16.964Z,16
2018-07-02T12:51:17.703Z,16
2018-07-02T12:52:18.454Z,17
2018-07-02T12:53:19.192Z,16
2018-07-02T12:54:19.979Z,17
2018-07-02T12:55:20.669Z,17
2018-07-02T12:56:21.408Z,19
2018-07-02T12:57:22.147Z,19
2018-07-02T12:58:22.887Z,19
2018-07-02T12:59:23.624Z,19
2018-07-02T13:00:24.364Z,18
2018-07-02T13:01:25.101Z,18
2018-07-02T13:02:25.839Z,18
2018-07-02T13:03:26.578Z,17
2018-07-02T13:04:27.321Z,17
2018-07-02T13:05:28.057Z,17
2018-07-02T13:06:28.796Z,18
2018-07-02T13:07:29.547Z,17
2018-07-02T13:08:30.295Z,17
2018-07-02T13:09:31.031Z,16
2018-07-02T13:10:31.770Z,17
2018-07-02T13:11:32.522Z,16
2018-07-02T13:12:33.261Z,17
2018-07-02T13:13:34.020Z,17
2018-07-02T13:14:34.734Z,17
2018-07-02T13:15:35.474Z,17
2018-07-02T13:16:36.212Z,17
2018-07-02T13:17:36.950Z,17
2018-07-02T13:18:37.688Z,17
2018-07-02T13:19:38.427Z,17
2018-07-02T13:20:39.206Z,17
2018-07-02T13:21:39.915Z,17
2018-07-02T13:22:40.655Z,17
2018-07-02T13:23:41.406Z,17
2018-07-02T13:24:42.156Z,18
2018-07-02T13:25:42.897Z,17
2018-07-02T13:26:43.636Z,17
2018-07-02T13:27:44.384Z,17
2018-07-02T13:28:45.138Z,18
2018-07-02T13:29:45.877Z,18
2018-07-02T13:30:46.612Z,18
2018-07-02T13:31:47.348Z,18
2018-07-02T13:32:48.086Z,18
2018-07-02T13:33:48.822Z,18
2018-07-02T13:34:49.574Z,18
2018-07-02T13:35:50.324Z,19
2018-07-02T13:36:51.060Z,18
2018-07-02T13:37:51.800Z,18
2018-07-02T13:38:52.539Z,18
2018-07-02T13:39:53.274Z,18
2018-07-02T13:40:54.010Z,17
2018-07-02T13:41:54.796Z,18
2018-07-02T13:42:55.514Z,17
2018-07-02T13:43:56.259Z,17
2018-07-02T13:44:56.998Z,18
2018-07-02T13:45:57.735Z,18
2018-07-02T13:46:58.472Z,18
2018-07-02T13:47:59.210Z,17
2018-07-02T13:48:59.947Z,17
2018-07-02T13:50:00.684Z,18
2018-07-02T13:51:01.420Z,18
2018-07-02T13:52:02.157Z,18
2018-07-02T13:53:02.907Z,18
2018-07-02T13:54:03.644Z,18
2018-07-02T13:55:04.381Z,18
2018-07-02T13:56:05.118Z,18
2018-07-02T13:57:05.856Z,18
2018-07-02T13:58:06.596Z,18
2018-07-02T13:59:07.332Z,18
2018-07-02T14:00:08.075Z,18
2018-07-02T14:01:08.819Z,18
2018-07-02T14:02:09.554Z,18
2018-07-02T14:03:10.293Z,18
2018-07-02T14:04:11.042Z,18
2018-07-02T14:05:11.780Z,18
2018-07-02T14:06:12.531Z,18
2018-07-02T14:07:13.268Z,19
2018-07-02T14:08:14.006Z,18
2018-07-02T14:09:14.753Z,18
2018-07-02T14:10:15.504Z,18
2018-07-02T14:11:16.239Z,18
2018-07-02T14:12:16.977Z,18
2018-07-02T14:13:17.714Z,18
2018-07-02T14:14:18.469Z,18
2018-07-02T14:15:19.202Z,18
2018-07-02T14:16:19.941Z,18
2018-07-02T14:17:20.683Z,18
2018-07-02T14:18:21.419Z,18
2018-07-02T14:19:22.160Z,18
2018-07-02T14:20:22.905Z,18
2018-07-02T14:21:23.656Z,19
2018-07-02T14:22:24.408Z,19
2018-07-02T14:23:25.159Z,19
2018-07-02T14:24:25.906Z,19
2018-07-02T14:25:26.642Z,19
2018-07-02T14:26:27.379Z,19
2018-07-02T14:27:28.117Z,19
2018-07-02T14:28:28.857Z,20
2018-07-02T14:29:29.596Z,20